createdAt,value
2018-02-17T08:04:23.634Z,95719.00
2018-02-17T08:06:51.021Z,95705.38
2018-02-17T08:09:18.374Z,95685.26
2018-02-17T08:11:45.725Z,95688.11
2018-02-17T08:14:13.096Z,95697.64
2018-02-17T08:16:40.440Z,95707.84
2018-02-17T08:19:07.826Z,95699.32
2018-02-17T08:21:35.195Z,95701.55
2018-02-17T08:24:02.544Z,95693.59
2018-02-17T08:26:29.910Z,95694.55
2018-02-17T08:28:57.255Z,95679.78
2018-02-17T08:31:24.683Z,95695.91
2018-02-17T08:33:52.043Z,95695.34
2018-02-17T08:36:19.450Z,95620.78
2018-02-17T08:38:46.804Z,95673.70
2018-02-17T08:41:14.184Z,95685.31
2018-02-17T08:43:41.549Z,95684.53
2018-02-17T08:46:09.027Z,95675.00
2018-02-17T08:48:36.390Z,95660.06
2018-02-17T08:51:03.770Z,95669.20
2018-02-17T08:53:31.186Z,95644.14
2018-02-17T08:55:58.532Z,95651.94
2018-02-17T08:58:25.932Z,95665.97
2018-02-17T09:00:53.303Z,95661.56
2018-02-17T09:03:20.647Z,95673.54
2018-02-17T09:05:48.066Z,95663.27
2018-02-17T09:08:15.514Z,95609.59
2018-02-17T09:10:42.901Z,95634.85
2018-02-17T09:13:10.269Z,95679.95
2018-02-17T09:15:37.618Z,95662.35
2018-02-17T09:18:04.962Z,95615.36
2018-02-17T09:20:32.354Z,95627.66
2018-02-17T09:22:59.714Z,95640.92
2018-02-17T09:25:27.080Z,95582.16
2018-02-17T09:27:54.441Z,95632.98
2018-02-17T09:30:21.798Z,95632.25
2018-02-17T09:32:49.151Z,95596.05
2018-02-17T09:35:16.558Z,95636.23
2018-02-17T09:37:43.914Z,95639.83
2018-02-17T09:40:11.262Z,95630.53
2018-02-17T09:42:38.610Z,95624.45
2018-02-17T09:45:05.958Z,95626.73
2018-02-17T09:47:33.332Z,95597.19
2018-02-17T09:50:00.733Z,95624.88
2018-02-17T09:52:28.166Z,95614.44
2018-02-17T09:54:55.597Z,95548.47
2018-02-17T09:57:22.995Z,95624.87
2018-02-17T09:59:50.363Z,95618.98
2018-02-17T10:02:17.771Z,95618.23
2018-02-17T10:04:45.123Z,95612.20
2018-02-17T10:07:12.518Z,95607.27
2018-02-17T10:09:39.995Z,95609.16
2018-02-17T10:12:07.401Z,95606.33
2018-02-17T10:14:34.795Z,95608.19
2018-02-17T10:17:02.217Z,95588.69
2018-02-17T10:19:29.606Z,95592.16
2018-02-17T10:21:56.955Z,95580.39
2018-02-17T10:24:24.371Z,95550.80
2018-02-17T10:26:51.715Z,95593.28
2018-02-17T10:29:19.158Z,95579.11
2018-02-17T10:31:46.518Z,95557.87
2018-02-17T10:34:13.927Z,95569.08
2018-02-17T10:36:41.307Z,95552.42
2018-02-17T10:39:08.727Z,95561.51
2018-02-17T10:41:36.108Z,95573.43
2018-02-17T10:44:03.472Z,95554.14
2018-02-17T10:46:30.815Z,95543.91
2018-02-17T10:48:58.156Z,95561.91
2018-02-17T10:51:25.590Z,95503.39
2018-02-17T10:53:53.007Z,95546.77
2018-02-17T10:56:20.351Z,95556.23
2018-02-17T10:58:47.790Z,95467.80
2018-02-17T11:01:15.159Z,95514.92
2018-02-17T11:03:42.560Z,95510.03
2018-02-17T11:06:09.914Z,95521.81
2018-02-17T11:08:37.305Z,95519.53
2018-02-17T11:11:04.654Z,95500.02
2018-02-17T11:13:32.051Z,95522.75
2018-02-17T11:15:59.409Z,95514.25
2018-02-17T11:18:26.760Z,95501.17
2018-02-17T11:20:54.162Z,95510.84
2018-02-17T11:23:31.687Z,95513.30
2018-02-17T11:25:59.070Z,95469.97
2018-02-17T11:28:26.470Z,95494.98
2018-02-17T11:30:53.862Z,95416.99
2018-02-17T11:33:21.215Z,95476.05
2018-02-17T11:35:48.567Z,95466.76
2018-02-17T11:38:15.919Z,95475.30
2018-02-17T11:40:43.263Z,95485.52
2018-02-17T11:43:10.620Z,95450.13
2018-02-17T11:45:38.008Z,95456.94
2018-02-17T11:48:05.361Z,95473.78
2018-02-17T11:50:32.702Z,95446.73
2018-02-17T11:53:00.049Z,95461.86
2018-02-17T11:55:27.443Z,95460.00
2018-02-17T11:57:54.799Z,95435.02
2018-02-17T12:00:22.155Z,95451.66
2018-02-17T12:02:49.509Z,95434.45
2018-02-17T12:05:16.887Z,95440.33
2018-02-17T12:07:44.262Z,95448.83
2018-02-17T12:10:11.616Z,95440.32
2018-02-17T12:12:39.013Z,95430.11
2018-02-17T12:15:06.415Z,95423.30
2018-02-17T12:17:33.802Z,95409.67
2018-02-17T12:20:01.149Z,95415.34
2018-02-17T12:22:28.508Z,95413.84
2018-02-17T12:24:55.862Z,95416.88
2018-02-17T12:27:23.250Z,95438.05
2018-02-17T12:29:50.602Z,95380.56
2018-02-17T12:32:17.976Z,95409.87
2018-02-17T12:34:45.331Z,95416.30
2018-02-17T12:37:12.687Z,95415.16
2018-02-17T12:39:40.100Z,95338.97
2018-02-17T12:42:07.449Z,95385.47
2018-02-17T12:44:34.799Z,95398.19
2018-02-17T12:47:02.151Z,95346.53
2018-02-17T12:49:29.596Z,95345.77
2018-02-17T12:51:56.982Z,95387.22
2018-02-17T12:54:24.324Z,95384.55
2018-02-17T12:56:51.672Z,95380.01
2018-02-17T12:59:19.071Z,95358.63
2018-02-17T13:01:46.421Z,95356.75
2018-02-17T13:04:13.820Z,95330.47
2018-02-17T13:06:41.191Z,95339.72
2018-02-17T13:09:08.625Z,95361.64
2018-02-17T13:11:36.079Z,95349.53
2018-02-17T13:14:03.473Z,95349.55
2018-02-17T13:16:30.865Z,95298.87
2018-02-17T13:18:58.260Z,95357.33
2018-02-17T13:21:25.667Z,95331.01
2018-02-17T13:23:53.070Z,95313.05
2018-02-17T13:26:20.446Z,95343.50
2018-02-17T13:28:47.853Z,95325.33
2018-02-17T13:31:15.283Z,95344.65
2018-02-17T13:33:42.628Z,95345.59
2018-02-17T13:36:10.033Z,95333.84
2018-02-17T13:38:37.379Z,95325.14
2018-02-17T13:41:04.728Z,95327.05
2018-02-17T13:43:32.072Z,95326.84
2018-02-17T13:45:59.463Z,95339.33
2018-02-17T13:48:26.855Z,95319.86
2018-02-17T13:50:54.190Z,95339.16
2018-02-17T13:53:21.542Z,95332.35
2018-02-17T13:55:48.878Z,95323.28
2018-02-17T13:58:16.222Z,95320.63
2018-02-17T14:00:43.622Z,95265.06
2018-02-17T14:03:10.977Z,95334.03
2018-02-17T14:05:38.367Z,95319.83
2018-02-17T14:08:05.735Z,95313.63
2018-02-17T14:10:33.124Z,95283.95
2018-02-17T14:13:00.536Z,95329.13
2018-02-17T14:15:27.958Z,95328.74
2018-02-17T14:17:55.358Z,95324.97
2018-02-17T14:20:22.722Z,95328.94
2018-02-17T14:22:50.161Z,95327.03
2018-02-17T14:25:17.565Z,95319.29
2018-02-17T14:27:44.971Z,95325.53
2018-02-17T14:30:12.397Z,95317.97
2018-02-17T14:32:39.823Z,95275.24
2018-02-17T14:35:07.211Z,95314.37
2018-02-17T14:37:34.567Z,95312.67
2018-02-17T14:40:01.928Z,95307.75
2018-02-17T14:42:29.296Z,95266.53
2018-02-17T14:44:56.707Z,95302.46
2018-02-17T14:47:24.079Z,95192.89
2018-02-17T14:49:51.455Z,95297.34
2018-02-17T14:52:18.875Z,95230.09
2018-02-17T14:54:46.240Z,95294.51
2018-02-17T14:57:13.639Z,95296.39
2018-02-17T14:59:41.049Z,95296.39
2018-02-17T15:02:08.480Z,95282.58
2018-02-17T15:04:35.877Z,95265.01
2018-02-17T15:07:03.247Z,95321.58
2018-02-17T15:09:30.655Z,95252.94
2018-02-17T15:11:58.056Z,95287.14
2018-02-17T15:14:25.457Z,95274.66
2018-02-17T15:16:52.893Z,95281.84
2018-02-17T15:19:20.247Z,95297.53
2018-02-17T15:21:47.612Z,95281.26
2018-02-17T15:24:14.997Z,95281.08
2018-02-17T15:26:42.364Z,95299.07
2018-02-17T15:29:09.732Z,95256.73
2018-02-17T15:31:37.129Z,95289.02
2018-02-17T15:34:04.495Z,95300.00
2018-02-17T15:36:31.866Z,95296.20
2018-02-17T15:38:59.226Z,95285.25
2018-02-17T15:41:26.625Z,95286.19
2018-02-17T15:43:54.011Z,95302.86
2018-02-17T15:46:21.367Z,95288.08
2018-02-17T15:48:48.788Z,95306.41
2018-02-17T15:51:16.191Z,95226.90
2018-02-17T15:53:43.550Z,95303.77
2018-02-17T15:56:10.914Z,95298.27
2018-02-17T15:58:38.339Z,95302.06
2018-02-17T16:01:05.702Z,95215.76
2018-02-17T16:03:33.080Z,95304.15
2018-02-17T16:06:00.454Z,95207.64
2018-02-17T16:08:27.847Z,95273.55
2018-02-17T16:10:55.203Z,95266.19
2018-02-17T16:13:22.563Z,95279.05
2018-02-17T16:15:49.947Z,95324.97
2018-02-17T16:18:17.318Z,95307.20
2018-02-17T16:20:44.693Z,95311.91
2018-02-17T16:23:12.077Z,95264.69
2018-02-17T16:25:39.438Z,95300.00
2018-02-17T16:28:06.800Z,95328.73
2018-02-17T16:30:34.255Z,95313.81
2018-02-17T16:33:01.651Z,95317.78
2018-02-17T16:35:29.003Z,95263.73
2018-02-17T16:37:56.396Z,95333.28
2018-02-17T16:40:23.752Z,95321.39
2018-02-17T16:42:51.117Z,95325.34
2018-02-17T16:45:18.563Z,95324.77
2018-02-17T16:47:45.926Z,95321.77
2018-02-17T16:50:13.439Z,95320.24
2018-02-17T16:52:40.804Z,95306.66
2018-02-17T16:55:08.164Z,95324.41
2018-02-17T16:57:35.522Z,95322.32
2018-02-17T17:00:02.890Z,95323.64
2018-02-17T17:02:30.312Z,95307.01
2018-02-17T17:04:57.626Z,95306.82
2018-02-17T17:07:24.982Z,95328.58
2018-02-17T17:09:52.365Z,95316.28
2018-02-17T17:12:19.766Z,95327.05
2018-02-17T17:14:47.162Z,95270.55
2018-02-17T17:17:14.531Z,95279.61
2018-02-17T17:19:41.989Z,95288.86
2018-02-17T17:22:09.358Z,95287.17
2018-02-17T17:24:36.752Z,95314.37
2018-02-17T17:27:04.158Z,95297.19
2018-02-17T17:29:31.521Z,95318.19
2018-02-17T17:31:58.919Z,95296.23
2018-02-17T17:34:26.353Z,95281.88
2018-02-17T17:36:53.724Z,95304.56
2018-02-17T17:39:21.099Z,95319.67
2018-02-17T17:41:48.477Z,95319.48
2018-02-17T17:44:15.894Z,95276.02
2018-02-17T17:46:43.350Z,95317.42
2018-02-17T17:49:10.832Z,95300.22
2018-02-17T17:51:38.259Z,95285.46
2018-02-17T17:54:05.632Z,95316.09
2018-02-17T17:56:33.002Z,95316.48
2018-02-17T17:59:00.364Z,95313.06
2018-02-17T18:01:27.756Z,95290.76
2018-02-17T18:03:55.107Z,95266.58
2018-02-17T18:06:22.475Z,95322.90
2018-02-17T18:08:49.880Z,95328.39
2018-02-17T18:11:17.271Z,95316.48
2018-02-17T18:13:44.674Z,95315.51
2018-02-17T18:16:12.867Z,95282.44
2018-02-17T18:18:40.235Z,95278.84
2018-02-17T18:21:07.591Z,95303.43
2018-02-17T18:23:35.035Z,95308.53
2018-02-17T18:26:02.396Z,95318.56
2018-02-17T18:28:29.761Z,95312.11
2018-02-17T18:30:57.127Z,95258.98
2018-02-17T18:33:24.501Z,95336.88
2018-02-17T18:35:51.856Z,95306.81
2018-02-17T18:38:19.271Z,95318.54
2018-02-17T18:40:46.658Z,95294.17
2018-02-17T18:43:14.044Z,95303.23
2018-02-17T18:45:41.476Z,95319.88
2018-02-17T18:48:08.934Z,95285.83
2018-02-17T18:50:36.352Z,95311.75
2018-02-17T18:53:03.763Z,95297.75
2018-02-17T18:55:31.187Z,95269.73
2018-02-17T18:57:58.607Z,95284.34
2018-02-17T19:00:25.964Z,95281.31
2018-02-17T19:02:53.346Z,95315.31
2018-02-17T19:05:20.743Z,95308.52
2018-02-17T19:07:48.089Z,95303.79
2018-02-17T19:10:15.596Z,95294.15
2018-02-17T19:12:43.047Z,95250.84
2018-02-17T19:15:10.415Z,95297.57
2018-02-17T19:17:37.827Z,95303.60
2018-02-17T19:20:05.232Z,95291.33
2018-02-17T19:22:32.666Z,95288.29
2018-02-17T19:25:00.064Z,95309.46
2018-02-17T19:27:27.439Z,95293.76
2018-02-17T19:29:54.797Z,95292.64
2018-02-17T19:32:22.241Z,95310.03
2018-02-17T19:34:49.682Z,95276.34
2018-02-17T19:37:17.051Z,95248.58
2018-02-17T19:39:44.430Z,95268.23
2018-02-17T19:42:11.866Z,95300.57
2018-02-17T19:44:39.360Z,95269.52
2018-02-17T19:47:06.780Z,95298.12
2018-02-17T19:49:34.184Z,95277.14
2018-02-17T19:52:01.592Z,95287.68
2018-02-17T19:54:29.012Z,95241.39
2018-02-17T19:56:56.375Z,95286.76
2018-02-17T19:59:23.785Z,95288.83
2018-02-17T20:01:51.156Z,95288.07
2018-02-17T20:04:18.569Z,95289.75
2018-02-17T20:06:45.934Z,95265.00
2018-02-17T20:09:13.335Z,95306.25
2018-02-17T20:11:40.748Z,95303.03
2018-02-17T20:14:08.199Z,95301.88
2018-02-17T20:16:35.590Z,95283.14
2018-02-17T20:19:02.994Z,95300.56
2018-02-17T20:21:30.387Z,95303.38
2018-02-17T20:23:57.817Z,95305.83
2018-02-17T20:26:25.183Z,95306.21
2018-02-17T20:28:52.640Z,95292.77
2018-02-17T20:31:20.011Z,95283.50
2018-02-17T20:33:47.481Z,95295.23
2018-02-17T20:36:14.906Z,95311.88
2018-02-17T20:38:42.309Z,95290.50
2018-02-17T20:41:09.790Z,95274.44
2018-02-17T20:43:37.166Z,95293.34
2018-02-17T20:46:04.595Z,95308.84
2018-02-17T20:48:31.969Z,95242.69
2018-02-17T20:50:59.336Z,95305.42
2018-02-17T20:53:26.728Z,95302.41
2018-02-17T20:55:54.132Z,95313.36
2018-02-17T20:58:21.538Z,95278.42
2018-02-17T21:00:48.969Z,95292.03
2018-02-17T21:03:16.370Z,95267.45
2018-02-17T21:05:43.820Z,95293.34
2018-02-17T21:08:11.187Z,95266.13
2018-02-17T21:10:38.575Z,95255.70
2018-02-17T21:13:06.003Z,95311.13
2018-02-17T21:15:33.382Z,95303.35
2018-02-17T21:18:00.751Z,95296.59
2018-02-17T21:20:28.182Z,95286.16
2018-02-17T21:22:55.585Z,95272.94
2018-02-17T21:25:23.132Z,95256.88
2018-02-17T21:27:50.543Z,95292.61
2018-02-17T21:30:17.982Z,95303.75
2018-02-17T21:32:45.350Z,95239.66
2018-02-17T21:35:12.812Z,95294.28
2018-02-17T21:37:40.190Z,95267.98
2018-02-17T21:40:07.709Z,95292.58
2018-02-17T21:42:35.140Z,95272.17
2018-02-17T21:45:02.502Z,95286.73
2018-02-17T21:47:29.926Z,95287.28
2018-02-17T21:49:57.356Z,95263.84
2018-02-17T21:52:24.817Z,95281.81
2018-02-17T21:54:52.239Z,95197.88
2018-02-17T21:57:19.556Z,95270.63
2018-02-17T21:59:46.967Z,95271.41
2018-02-17T22:02:14.396Z,95205.26
2018-02-17T22:04:41.817Z,95279.17
2018-02-17T22:07:09.203Z,95264.97
2018-02-17T22:09:36.629Z,95272.33
2018-02-17T22:12:04.017Z,95281.03
2018-02-17T22:14:31.392Z,95262.69
2018-02-17T22:16:58.800Z,95275.37
2018-02-17T22:19:26.163Z,95265.34
2018-02-17T22:21:53.572Z,95263.84
2018-02-17T22:24:20.990Z,95248.16
2018-02-17T22:26:48.351Z,95282.55
2018-02-17T22:29:15.755Z,95285.01
2018-02-17T22:31:43.140Z,95263.84
2018-02-17T22:34:10.551Z,95276.13
2018-02-17T22:36:37.993Z,95269.48
2018-02-17T22:39:05.411Z,95195.03
2018-02-17T22:41:32.876Z,95254.22
2018-02-17T22:44:00.290Z,95264.42
2018-02-17T22:46:27.652Z,95262.52
2018-02-17T22:48:55.032Z,95244.95
2018-02-17T22:51:22.410Z,95225.66
2018-02-17T22:53:49.770Z,95230.41
2018-02-17T22:56:17.160Z,95247.44
2018-02-17T22:58:44.561Z,95249.49
2018-02-17T23:01:11.994Z,95255.53
2018-02-17T23:03:39.362Z,95252.70
2018-02-17T23:06:06.761Z,95255.33
2018-02-17T23:08:34.145Z,95251.94
2018-02-17T23:11:01.499Z,95253.63
2018-02-17T23:13:28.877Z,95222.27
2018-02-17T23:15:56.256Z,95240.39
2018-02-17T23:18:23.669Z,95254.39
2018-02-17T23:20:51.052Z,95259.85
2018-02-17T23:23:18.412Z,95227.17
2018-02-17T23:25:45.800Z,95199.17
2018-02-17T23:28:13.249Z,95246.99
2018-02-17T23:30:40.609Z,95253.26
2018-02-17T23:33:08.054Z,95232.63
2018-02-17T23:35:35.408Z,95250.04
2018-02-17T23:38:02.812Z,95253.98
2018-02-17T23:40:30.240Z,95227.92
2018-02-17T23:42:57.682Z,95257.98
2018-02-17T23:45:25.046Z,95252.31
2018-02-17T23:47:52.423Z,95250.23
2018-02-17T23:50:19.778Z,95264.58
2018-02-17T23:52:47.122Z,95211.28
2018-02-17T23:55:14.466Z,95167.59
2018-02-17T23:57:41.819Z,95212.95
